Flight Track Log - Related Links

Times and Time Zones

All times are in EDT time to prevent confusion due to time zone crossing. See the TAM3194 flight status page for this flight to view local times or setup timezone preferences in your user account.

Time Position Orientation Groundspeed Altitude Reporting Facility
EDT Latitude Longitude Course Direction KTS MPH feet Rate Location/Type
Sun 11:32:00 AM -22.4034 -42.6006 46° Northeast  Level Estimated
Sun 11:33:00 AM -22.3526 -42.5446 46° Northeast  Level Estimated
Sun 11:34:00 AM -22.3018 -42.4886 46° Northeast  Level Estimated
Sun 11:35:00 AM -22.2509 -42.4327 46° Northeast  Level Estimated
Sun 11:36:00 AM -22.2000 -42.3768 46° Northeast  Level Estimated
Sun 11:37:00 AM -22.1492 -42.3209 45° Northeast  Level Estimated
Sun 11:38:00 AM -22.0982 -42.2651 45° Northeast  Level Estimated
Sun 11:39:00 AM -22.0473 -42.2093 45° Northeast  Level Estimated
Sun 11:40:00 AM -21.9964 -42.1536 45° Northeast  Level Estimated
Sun 11:41:00 AM -21.9454 -42.0979 45° Northeast  Level Estimated
Sun 11:42:00 AM -21.8944 -42.0422 45° Northeast  Level Estimated
Sun 11:43:00 AM -21.8434 -41.9866 45° Northeast  Level Estimated
Sun 11:44:00 AM -21.7924 -41.9310 45° Northeast  Level Estimated
Sun 11:45:00 AM -21.7414 -41.8755 45° Northeast  Level Estimated
Sun 11:46:00 AM -21.6903 -41.8200 45° Northeast  Level Estimated
Sun 11:47:00 AM -21.6392 -41.7645 45° Northeast  Level Estimated
Sun 11:48:00 AM -21.5881 -41.7091 45° Northeast  Level Estimated
Sun 11:49:00 AM -21.5370 -41.6537 45° Northeast  Level Estimated
Sun 11:50:00 AM -21.4859 -41.5984 45° Northeast  Level Estimated
Sun 11:51:00 AM -21.4347 -41.5430 45° Northeast  Level Estimated
Sun 11:52:00 AM -21.3836 -41.4878 45° Northeast  Level Estimated
Sun 11:53:00 AM -21.3324 -41.4325 45° Northeast  Level Estimated
Sun 11:54:00 AM -21.2812 -41.3773 45° Northeast  Level Estimated
Sun 11:55:00 AM -21.2299 -41.3222 45° Northeast  Level Estimated
Sun 11:56:00 AM -21.1787 -41.2671 45° Northeast  Level Estimated
Sun 11:57:00 AM -21.1274 -41.2120 45° Northeast  Level Estimated
Sun 11:58:00 AM -21.0762 -41.1570 45° Northeast  Level Estimated
Sun 11:59:00 AM -21.0249 -41.1020 45° Northeast  Level Estimated
Sun 12:00:00 PM -20.9736 -41.0470 45° Northeast  Level Estimated
Sun 12:01:00 PM -20.9222 -40.9921 45° Northeast  Level Estimated
Sun 12:02:00 PM -20.8709 -40.9372 45° Northeast  Level Estimated
Sun 12:03:00 PM -20.8195 -40.8823 45° Northeast  Level Estimated
Sun 12:04:00 PM -20.7681 -40.8275 45° Northeast  Level Estimated
Sun 12:05:00 PM -20.7167 -40.7728 45° Northeast  Level Estimated
Sun 12:06:00 PM -20.6653 -40.7180 45° Northeast  Level Estimated
Sun 12:07:00 PM -20.6139 -40.6633 45° Northeast  Level Estimated
Sun 12:08:00 PM -20.5624 -40.6087 45° Northeast  Level Estimated
Sun 12:09:00 PM -20.5110 -40.5540 45° Northeast  Level Estimated
Sun 12:10:00 PM -20.4595 -40.4994 45° Northeast  Level Estimated
Sun 12:11:00 PM -20.4080 -40.4449 45° Northeast  Level Estimated
Sun 12:12:00 PM -20.3564 -40.3904 45° Northeast  Level Estimated
Sun 12:13:00 PM -20.3049 -40.3359 45° Northeast  Level Estimated
Sun 12:14:00 PM -20.2581 -40.2864 45° Northeast  Level Estimated
Sun 12:15:00 PM -20.2581 -40.2864 13° North  Level Estimated
Sun 12:16:00 PM -20.2581 -40.2864 13° North  Level Estimated
Sun 12:17:00 PM -20.2581 -40.2864 13° North  Level Estimated
Sun 12:18:00 PM -20.2581 -40.2864 13° North  Level Estimated
Sun 12:19:00 PM -20.2581 -40.2864 13° North  Level Estimated
Sun 12:20:00 PM -20.2581 -40.2864 13° North  Level Estimated
Sun 12:21:00 PM -20.2581 -40.2864 13° North  Level Estimated
Sun 12:22:00 PM -20.2581 -40.2864 13° North  Level Estimated
Sun 12:23:00 PM -20.2581 -40.2864 13° North  Level Estimated
Sun 12:24:00 PM -20.2581 -40.2864 13° North  Level Estimated
Sun 12:25:00 PM -20.2581 -40.2864 13° North  Level Estimated
Sun 12:26:00 PM -20.2581 -40.2864 13° North  Level Estimated
Sun 12:27:00 PM -20.2581 -40.2864 13° North  Level Estimated
Sun 12:28:00 PM -20.2581 -40.2864 13° North  Level Estimated
Sun 12:29:00 PM -20.2581 -40.2864 13° North  Level Estimated
Sun 12:30:00 PM -20.2581 -40.2864 13° North  Level Estimated

Login

Don't have an account? Register now (free) for customized features, flight alerts, and more!